Time;durP1;ratioP1;P1;durP2;ratioP2;P2;SDS_P1;SDS_P2;PMS_P1;PMS_P2;Temp;Humidity;BMP_temperature;BMP_pressure;BME280_temperature;BME280_humidity;BME280_pressure;Samples;Min_cycle;Max_cycle;Signal;HPM_P1;HPM_P2
2023/01/10 00:00:43;;;;;;;;;;;;;;;8.36;100.00;99937.72;5089242;28;20038;-58
2023/01/10 00:03:10;;;;;;;;;;;;;;;8.26;100.00;99946.81;5087974;28;19943;-58
2023/01/10 00:05:36;;;;;;;;;;;;;;;8.32;100.00;99944.03;5084132;28;20321;-58
2023/01/10 00:08:02;;;;;;;;;;;;;;;8.41;100.00;99954.41;5082977;28;19964;-59
2023/01/10 00:10:27;;;;;;;;;;;;;;;8.36;100.00;99959.81;5094542;28;19972;-58
2023/01/10 00:15:37;;;;;;;;;;;;;;;8.44;100.00;99963.16;5093354;28;19939;-58
2023/01/10 00:18:02;;;;;;;;;;;;;;;8.38;100.00;99967.72;5089255;28;19929;-59
2023/01/10 00:20:28;;;;;;;;;;;;;;;8.44;100.00;99976.41;5086245;28;19998;-58
2023/01/10 00:22:53;;;;;;;;;;;;;;;8.39;100.00;99980.06;5072746;28;19933;-59
2023/01/10 00:25:20;;;;;;;;;;;;;;;8.37;100.00;100001.28;5092984;28;19982;-59
2023/01/10 00:27:48;;;;;;;;;;;;;;;8.34;100.00;99995.19;5091897;28;20401;-59
2023/01/10 00:30:14;;;;;;;;;;;;;;;8.30;100.00;100012.97;5083628;28;19930;-58
2023/01/10 00:32:43;;;;;;;;;;;;;;;8.26;100.00;100021.00;5073437;28;19981;-58
2023/01/10 00:35:10;;;;;;;;;;;;;;;8.21;100.00;100038.75;5071367;28;19936;-58
2023/01/10 00:37:35;;;;;;;;;;;;;;;8.23;100.00;100045.81;5089106;28;19935;-58
2023/01/10 00:40:00;;;;;;;;;;;;;;;8.29;100.00;100044.78;5088935;28;20282;-58
2023/01/10 00:45:10;;;;;;;;;;;;;;;8.36;100.00;100067.59;5076814;28;19951;-58
2023/01/10 00:47:36;;;;;;;;;;;;;;;8.38;100.00;100071.09;5074825;28;19959;-58
2023/01/10 00:50:03;;;;;;;;;;;;;;;8.35;100.00;100076.47;5072581;28;20061;-58
2023/01/10 00:52:28;;;;;;;;;;;;;;;8.33;100.00;100080.91;5074637;28;19935;-58
2023/01/10 00:54:54;;;;;;;;;;;;;;;8.37;100.00;100087.91;5072257;28;19971;-58
2023/01/10 00:57:19;;;;;;;;;;;;;;;8.38;100.00;100097.59;5074342;28;19945;-58
2023/01/10 00:59:45;;;;;;;;;;;;;;;8.38;100.00;100108.19;5072423;28;19976;-58
2023/01/10 01:02:10;;;;;;;;;;;;;;;8.41;100.00;100105.47;5076598;28;19941;-58
2023/01/10 01:04:35;;;;;;;;;;;;;;;8.44;100.00;100110.69;5086034;28;20033;-58
2023/01/10 01:07:01;;;;;;;;;;;;;;;8.38;100.00;100108.19;5088634;28;20435;-58
2023/01/10 01:09:27;;;;;;;;;;;;;;;8.28;100.00;100111.94;5085880;28;19942;-58
2023/01/10 01:11:52;;;;;;;;;;;;;;;8.28;100.00;100120.78;5070249;28;19930;-58
2023/01/10 01:14:17;;;;;;;;;;;;;;;8.28;100.00;100131.38;5070377;28;19934;-59
2023/01/10 01:16:42;;;;;;;;;;;;;;;8.26;100.00;100133.19;5073005;28;19967;-58
2023/01/10 01:19:08;;;;;;;;;;;;;;;8.22;100.00;100135.91;5090491;28;19945;-58
2023/01/10 01:21:33;;;;;;;;;;;;;;;8.20;100.00;100143.00;5082463;28;20291;-59
2023/01/10 01:23:58;;;;;;;;;;;;;;;8.18;100.00;100152.75;5071988;28;20301;-58
2023/01/10 01:26:24;;;;;;;;;;;;;;;8.16;100.00;100155.44;5071880;28;19964;-58
2023/01/10 01:28:50;;;;;;;;;;;;;;;8.14;100.00;100161.69;5074113;28;20028;-59
2023/01/10 01:31:15;;;;;;;;;;;;;;;8.10;100.00;100162.63;5072170;28;19945;-59
2023/01/10 01:33:41;;;;;;;;;;;;;;;8.02;100.00;100182.19;5071832;28;19934;-59
2023/01/10 01:36:10;;;;;;;;;;;;;;;8.02;100.00;100179.53;5072108;28;19933;-59
2023/01/10 01:38:35;;;;;;;;;;;;;;;8.04;100.00;100185.69;5075542;28;19949;-59
2023/01/10 01:41:01;;;;;;;;;;;;;;;8.00;100.00;100186.69;5071797;28;20305;-58
2023/01/10 01:43:27;;;;;;;;;;;;;;;8.03;100.00;100189.25;5076646;28;20310;-58
2023/01/10 01:45:53;;;;;;;;;;;;;;;8.01;100.00;100206.94;5071836;28;19929;-59
2023/01/10 01:48:27;;;;;;;;;;;;;;;8.00;100.00;100215.81;5081180;28;19955;-58
2023/01/10 01:51:08;;;;;;;;;;;;;;;7.97;100.00;100221.13;5091855;28;19943;-58
2023/01/10 01:53:48;;;;;;;;;;;;;;;8.01;100.00;100232.56;5091416;28;19938;-59
2023/01/10 01:56:36;;;;;;;;;;;;;;;8.07;100.00;100231.56;5076564;28;19978;-58
2023/01/10 01:59:05;;;;;;;;;;;;;;;8.03;100.00;100234.28;5064766;28;19931;-58
2023/01/10 02:01:31;;;;;;;;;;;;;;;8.07;100.00;100238.59;5077621;28;19936;-58
2023/01/10 02:04:00;;;;;;;;;;;;;;;8.09;100.00;100240.38;5092283;28;19981;-58
2023/01/10 02:06:26;;;;;;;;;;;;;;;8.03;100.00;100247.53;5095805;28;19957;-58
2023/01/10 02:08:54;;;;;;;;;;;;;;;8.07;100.00;100243.91;5086082;28;19937;-58
2023/01/10 02:11:19;;;;;;;;;;;;;;;8.15;100.00;100250.84;5075608;28;19932;-59
2023/01/10 02:13:45;;;;;;;;;;;;;;;8.16;100.00;100256.13;5075532;28;20077;-59
2023/01/10 02:16:11;;;;;;;;;;;;;;;8.18;100.00;100271.97;5077862;28;19943;-58
2023/01/10 02:18:38;;;;;;;;;;;;;;;8.15;100.00;100274.69;5088600;28;19934;-58
2023/01/10 02:21:03;;;;;;;;;;;;;;;8.15;100.00;100282.63;5095571;28;19931;-59
2023/01/10 02:23:37;;;;;;;;;;;;;;;8.11;100.00;100291.53;5091382;28;19986;-58
2023/01/10 02:26:17;;;;;;;;;;;;;;;8.07;100.00;100299.53;5095740;28;20409;-58
2023/01/10 02:29:01;;;;;;;;;;;;;;;8.07;100.00;100294.25;5095502;28;19981;-58
2023/01/10 02:31:45;;;;;;;;;;;;;;;8.09;100.00;100299.50;5093615;28;20039;-59
2023/01/10 02:34:19;;;;;;;;;;;;;;;8.14;100.00;100292.34;5095456;28;19928;-59
2023/01/10 02:37:19;;;;;;;;;;;;;;;8.12;100.00;100303.91;5092692;28;20366;-59
2023/01/10 02:40:05;;;;;;;;;;;;;;;8.13;100.00;100305.63;5008639;28;19988;-59
2023/01/10 02:42:41;;;;;;;;;;;;;;;8.04;100.00;100312.84;5091875;28;20031;-58
2023/01/10 02:45:13;;;;;;;;;;;;;;;8.05;100.00;100311.94;5095353;28;19967;-59
2023/01/10 02:47:39;;;;;;;;;;;;;;;8.04;100.00;100318.13;5092722;28;20670;-59
2023/01/10 02:50:23;;;;;;;;;;;;;;;8.11;100.00;100328.63;5074789;28;19985;-58
2023/01/10 02:52:49;;;;;;;;;;;;;;;7.98;100.00;100325.31;5077947;28;19926;-58
2023/01/10 02:55:14;;;;;;;;;;;;;;;8.07;100.00;100341.91;5079041;28;19972;-58
2023/01/10 02:58:00;;;;;;;;;;;;;;;8.16;100.00;100337.34;5074698;28;19986;-58
2023/01/10 03:00:31;;;;;;;;;;;;;;;8.07;100.00;100333.97;5075397;28;19932;-58
2023/01/10 03:03:00;;;;;;;;;;;;;;;8.04;100.00;100344.63;5093188;28;19945;-58
2023/01/10 03:05:51;;;;;;;;;;;;;;;8.05;100.00;100348.16;5094853;28;19946;-59
2023/01/10 03:08:25;;;;;;;;;;;;;;;8.01;100.00;100351.75;5054468;28;19964;-58
2023/01/10 03:10:51;;;;;;;;;;;;;;;8.01;100.00;100365.00;5094929;28;19927;-58
2023/01/10 03:13:28;;;;;;;;;;;;;;;7.99;100.00;100362.38;5094855;28;19935;-59
2023/01/10 03:15:54;;;;;;;;;;;;;;;7.99;100.00;100367.66;5092388;28;20325;-59
2023/01/10 03:18:23;;;;;;;;;;;;;;;7.94;100.00;100374.81;5086038;28;19943;-59
2023/01/10 03:20:50;;;;;;;;;;;;;;;7.95;100.00;100381.88;5094578;28;19931;-59
2023/01/10 03:23:17;;;;;;;;;;;;;;;7.89;100.00;100386.41;5094507;28;20029;-59
2023/01/10 03:25:43;;;;;;;;;;;;;;;7.87;100.00;100394.34;5087409;28;20396;-58
2023/01/10 03:28:14;;;;;;;;;;;;;;;7.87;100.00;100389.03;5074139;28;20371;-58
2023/01/10 03:30:43;;;;;;;;;;;;;;;7.91;100.00;100401.34;5076429;28;19955;-58
2023/01/10 03:33:10;;;;;;;;;;;;;;;7.85;100.00;100401.47;5074162;28;19937;-58
2023/01/10 03:35:50;;;;;;;;;;;;;;;7.83;100.00;100403.25;5092270;28;19942;-58
2023/01/10 03:38:37;;;;;;;;;;;;;;;7.83;100.00;100408.53;5078401;28;19979;-58
2023/01/10 03:41:07;;;;;;;;;;;;;;;7.73;100.00;100422.81;5073882;28;19937;-58
2023/01/10 03:46:35;;;;;;;;;;;;;;;7.65;100.00;100419.41;5079807;28;20038;-59
2023/01/10 03:49:02;;;;;;;;;;;;;;;7.65;100.00;100429.13;5093924;28;20078;-59
2023/01/10 03:51:28;;;;;;;;;;;;;;;7.65;100.00;100427.34;5091898;28;19936;-59
2023/01/10 03:53:53;;;;;;;;;;;;;;;7.67;100.00;100437.91;5074650;28;19947;-58
2023/01/10 03:56:18;;;;;;;;;;;;;;;7.67;100.00;100437.91;5073198;28;19934;-59
2023/01/10 03:58:44;;;;;;;;;;;;;;;7.63;100.00;100438.84;5075547;28;19979;-58
2023/01/10 04:01:09;;;;;;;;;;;;;;;7.63;100.00;100447.69;5087244;28;19962;-58
2023/01/10 04:03:34;;;;;;;;;;;;;;;7.64;100.00;100462.66;5079310;28;19949;-58
2023/01/10 04:05:59;;;;;;;;;;;;;;;7.70;100.00;100473.19;5092812;28;20377;-59
2023/01/10 04:08:25;;;;;;;;;;;;;;;7.72;100.00;100479.34;5075335;28;20067;-58
2023/01/10 04:10:50;;;;;;;;;;;;;;;7.75;100.00;100478.41;5073065;28;19982;-58
2023/01/10 04:13:15;;;;;;;;;;;;;;;7.79;100.00;100482.78;5079282;28;19929;-59
2023/01/10 04:15:40;;;;;;;;;;;;;;;7.78;100.00;100489.81;5093478;28;19930;-58
2023/01/10 04:18:06;;;;;;;;;;;;;;;7.82;100.00;100493.31;5091166;28;20281;-59
2023/01/10 04:20:31;;;;;;;;;;;;;;;7.82;100.00;100493.31;5073799;28;19964;-58
2023/01/10 04:22:56;;;;;;;;;;;;;;;7.89;100.00;100487.03;5073048;28;19936;-59
2023/01/10 04:25:22;;;;;;;;;;;;;;;7.90;100.00;100488.78;5088389;28;20314;-59
2023/01/10 04:27:51;;;;;;;;;;;;;;;7.90;100.00;100494.97;5090422;28;19950;-58
2023/01/10 04:30:17;;;;;;;;;;;;;;;7.92;100.00;100493.13;5092329;28;19938;-59
2023/01/10 04:32:43;;;;;;;;;;;;;;;7.84;100.00;100499.47;5092377;28;19937;-59
2023/01/10 04:35:08;;;;;;;;;;;;;;;7.73;100.00;100496.06;5092728;28;19941;-59
2023/01/10 04:37:33;;;;;;;;;;;;;;;7.77;100.00;100506.63;5084061;28;19937;-59
2023/01/10 04:39:59;;;;;;;;;;;;;;;7.79;100.00;100511.91;5074417;28;20000;-59
2023/01/10 04:42:24;;;;;;;;;;;;;;;7.77;100.00;100519.88;5072387;28;19935;-59
2023/01/10 04:44:49;;;;;;;;;;;;;;;7.65;100.00;100529.72;5083113;28;19944;-59
2023/01/10 04:47:15;;;;;;;;;;;;;;;7.68;100.00;100529.66;5088882;28;20395;-59
2023/01/10 04:49:40;;;;;;;;;;;;;;;7.62;100.00;100524.47;5071690;28;19933;-59
2023/01/10 04:52:05;;;;;;;;;;;;;;;7.62;100.00;100530.66;5073649;28;19934;-59
2023/01/10 04:54:30;;;;;;;;;;;;;;;7.63;100.00;100544.75;5071831;28;19969;-59
2023/01/10 04:56:56;;;;;;;;;;;;;;;7.56;100.00;100543.94;5090598;28;19939;-59
2023/01/10 04:59:21;;;;;;;;;;;;;;;7.58;100.00;100544.81;5092678;28;19957;-59
2023/01/10 05:01:46;;;;;;;;;;;;;;;7.61;100.00;100554.50;5081786;28;19940;-59
2023/01/10 05:04:12;;;;;;;;;;;;;;;7.62;100.00;100562.41;5084328;28;19951;-59
2023/01/10 05:06:39;;;;;;;;;;;;;;;7.59;100.00;100559.81;5092014;28;20307;-59
2023/01/10 05:09:04;;;;;;;;;;;;;;;7.59;100.00;100562.47;5092509;28;19933;-59
2023/01/10 05:11:29;;;;;;;;;;;;;;;7.65;100.00;100565.03;5077710;28;19947;-59
2023/01/10 05:13:55;;;;;;;;;;;;;;;7.66;100.00;100568.56;5074196;28;19942;-59
2023/01/10 05:16:20;;;;;;;;;;;;;;;7.66;100.00;100572.06;5072202;28;19964;-59
2023/01/10 05:18:45;;;;;;;;;;;;;;;7.65;100.00;100572.06;5087630;28;19959;-59
2023/01/10 05:21:11;;;;;;;;;;;;;;;7.68;100.00;100574.69;5091805;28;20319;-58
2023/01/10 05:23:37;;;;;;;;;;;;;;;7.68;100.00;100570.28;5076392;28;19986;-59
2023/01/10 05:26:07;;;;;;;;;;;;;;;7.64;100.00;100571.19;5071689;28;20379;-58
2023/01/10 05:28:32;;;;;;;;;;;;;;;7.68;100.00;100575.56;5074597;28;20423;-58
2023/01/10 05:30:57;;;;;;;;;;;;;;;7.67;100.00;100575.59;5071838;28;19962;-58
2023/01/10 05:33:23;;;;;;;;;;;;;;;7.68;100.00;100575.56;5072443;28;19934;-59
2023/01/10 05:35:48;;;;;;;;;;;;;;;7.71;100.00;100572.88;5092219;28;19936;-59
2023/01/10 05:38:13;;;;;;;;;;;;;;;7.74;100.00;100578.13;5092276;28;20028;-59
2023/01/10 05:40:39;;;;;;;;;;;;;;;7.77;100.00;100572.81;5092022;28;19940;-59
2023/01/10 05:43:04;;;;;;;;;;;;;;;7.77;100.00;100578.13;5088648;28;20046;-58
2023/01/10 05:45:29;;;;;;;;;;;;;;;7.79;100.00;100581.59;5071787;28;19937;-58
2023/01/10 05:47:54;;;;;;;;;;;;;;;7.82;100.00;100586.84;5080654;28;19955;-58
2023/01/10 05:50:20;;;;;;;;;;;;;;;7.82;100.00;100589.50;5075507;28;20068;-59
2023/01/10 05:52:45;;;;;;;;;;;;;;;7.81;100.00;100595.69;5072028;28;20289;-59
2023/01/10 05:55:10;;;;;;;;;;;;;;;7.82;100.00;100594.78;5076379;28;19961;-59
2023/01/10 05:57:35;;;;;;;;;;;;;;;7.82;100.00;100602.75;5092156;28;20000;-59
2023/01/10 06:00:01;;;;;;;;;;;;;;;7.80;100.00;100599.25;5091952;28;19935;-59
2023/01/10 06:02:26;;;;;;;;;;;;;;;7.78;100.00;100601.03;5088423;28;19947;-59
2023/01/10 06:04:54;;;;;;;;;;;;;;;7.79;100.00;100608.06;5091687;28;19948;-59
2023/01/10 06:07:19;;;;;;;;;;;;;;;7.80;100.00;100612.50;5083125;28;20035;-60
2023/01/10 06:09:45;;;;;;;;;;;;;;;7.81;100.00;100608.94;5088274;28;19992;-58
2023/01/10 06:12:10;;;;;;;;;;;;;;;7.76;100.00;100610.78;5092048;28;19993;-58
2023/01/10 06:14:36;;;;;;;;;;;;;;;7.76;100.00;100610.78;5081634;28;19938;-59
2023/01/10 06:17:01;;;;;;;;;;;;;;;7.76;100.00;100618.72;5072060;28;19927;-59
2023/01/10 06:19:26;;;;;;;;;;;;;;;7.79;100.00;100605.44;5089642;28;20467;-59
2023/01/10 06:21:51;;;;;;;;;;;;;;;7.80;100.00;100616.91;5091895;28;19926;-58
2023/01/10 06:24:17;;;;;;;;;;;;;;;7.77;100.00;100617.84;5083661;28;20382;-59
2023/01/10 06:26:42;;;;;;;;;;;;;;;7.74;100.00;100627.59;5073699;28;19953;-59
2023/01/10 06:29:07;;;;;;;;;;;;;;;7.69;100.00;100638.19;5071470;28;19988;-59
2023/01/10 06:31:33;;;;;;;;;;;;;;;7.66;100.00;100632.94;5087508;28;20027;-59
2023/01/10 06:33:58;;;;;;;;;;;;;;;7.66;100.00;100648.84;5071963;28;20606;-59
2023/01/10 06:36:23;;;;;;;;;;;;;;;7.66;100.00;100663.88;5071355;28;19983;-58
2023/01/10 06:38:48;;;;;;;;;;;;;;;7.66;100.00;100666.50;5083460;28;19975;-59
2023/01/10 06:41:14;;;;;;;;;;;;;;;7.66;100.00;100659.41;5091912;28;19933;-59
2023/01/10 06:43:44;;;;;;;;;;;;;;;7.64;100.00;100655.06;5085620;28;19939;-58
2023/01/10 06:46:09;;;;;;;;;;;;;;;7.59;100.00;100651.56;5075124;28;19932;-59
2023/01/10 06:48:35;;;;;;;;;;;;;;;7.60;100.00;100659.50;5087150;28;19955;-58
2023/01/10 06:51:01;;;;;;;;;;;;;;;7.63;100.00;100669.16;5075250;28;20042;-58
2023/01/10 06:53:26;;;;;;;;;;;;;;;7.61;100.00;100671.81;5093224;28;20373;-59
2023/01/10 06:55:53;;;;;;;;;;;;;;;7.62;100.00;100678.00;5090851;28;19966;-58
2023/01/10 06:58:18;;;;;;;;;;;;;;;7.61;100.00;100687.72;5095165;28;20046;-59
2023/01/10 07:00:43;;;;;;;;;;;;;;;7.60;100.00;100693.91;5092110;28;20029;-59
2023/01/10 07:03:08;;;;;;;;;;;;;;;7.63;100.00;100693.88;5078029;28;19978;-59
2023/01/10 07:05:34;;;;;;;;;;;;;;;7.62;100.00;100689.50;5094744;28;19949;-58
2023/01/10 07:08:00;;;;;;;;;;;;;;;7.62;100.00;100694.78;5087206;28;19957;-59
2023/01/10 07:10:26;;;;;;;;;;;;;;;7.63;100.00;100699.16;5074579;28;19932;-59
2023/01/10 07:12:53;;;;;;;;;;;;;;;7.59;100.00;100700.13;5074549;28;20007;-59
2023/01/10 07:15:18;;;;;;;;;;;;;;;7.57;100.00;100707.19;5076836;28;20416;-59
2023/01/10 07:17:43;;;;;;;;;;;;;;;7.70;100.00;100719.41;5081153;28;19933;-59
2023/01/10 07:20:09;;;;;;;;;;;;;;;7.68;100.00;100715.88;5088065;28;20492;-58
2023/01/10 07:22:34;;;;;;;;;;;;;;;7.70;100.00;100714.13;5074274;28;19959;-58
2023/01/10 07:25:00;;;;;;;;;;;;;;;7.72;100.00;100728.22;5074239;28;20335;-58
2023/01/10 07:27:25;;;;;;;;;;;;;;;7.72;100.00;100729.97;5074352;28;19956;-58
2023/01/10 07:29:50;;;;;;;;;;;;;;;7.67;100.00;100719.44;5088147;28;20036;-59
2023/01/10 07:32:15;;;;;;;;;;;;;;;7.66;100.00;100730.91;5092059;28;19937;-58
2023/01/10 07:34:41;;;;;;;;;;;;;;;7.65;100.00;100733.56;5093356;28;19943;-59
2023/01/10 07:37:06;;;;;;;;;;;;;;;7.67;100.00;100737.09;5094330;28;20369;-58
2023/01/10 07:39:31;;;;;;;;;;;;;;;7.56;100.00;100716.00;5076936;28;19938;-58
2023/01/10 07:41:56;;;;;;;;;;;;;;;7.70;100.00;100751.19;5074000;28;19934;-59
2023/01/10 07:44:22;;;;;;;;;;;;;;;7.75;100.00;100759.06;5073910;28;19931;-58
2023/01/10 07:46:48;;;;;;;;;;;;;;;7.75;100.00;100765.25;5074893;28;19949;-58
2023/01/10 07:49:13;;;;;;;;;;;;;;;7.65;100.00;100766.22;5075317;28;19941;-59
2023/01/10 07:51:39;;;;;;;;;;;;;;;7.61;100.00;100775.06;5073820;28;19932;-59
2023/01/10 07:54:04;;;;;;;;;;;;;;;7.56;100.00;100774.22;5084713;28;20023;-59
2023/01/10 07:56:30;;;;;;;;;;;;;;;7.60;100.00;100780.38;5093325;28;19946;-59
2023/01/10 07:58:55;;;;;;;;;;;;;;;7.58;100.00;100780.41;5089956;28;19986;-58
2023/01/10 08:01:20;;;;;;;;;;;;;;;7.61;100.00;100783.00;5077265;28;19936;-59
2023/01/10 08:03:46;;;;;;;;;;;;;;;7.61;100.00;100782.16;5081938;28;20054;-59
2023/01/10 08:06:11;;;;;;;;;;;;;;;7.69;100.00;100780.31;5086842;28;20778;-59
2023/01/10 08:08:36;;;;;;;;;;;;;;;7.72;100.00;100789.13;5072952;28;19950;-59
2023/01/10 08:11:02;;;;;;;;;;;;;;;7.73;100.00;100782.91;5080034;28;20359;-58
2023/01/10 08:13:28;;;;;;;;;;;;;;;7.81;100.00;100780.19;5082575;28;20009;-59
2023/01/10 08:15:53;;;;;;;;;;;;;;;7.83;100.00;100786.34;5076284;28;19935;-59
2023/01/10 08:18:20;;;;;;;;;;;;;;;7.91;100.00;100790.69;5084472;28;19927;-58
2023/01/10 08:20:47;;;;;;;;;;;;;;;7.94;100.00;100795.06;5093082;28;19927;-58
2023/01/10 08:23:12;;;;;;;;;;;;;;;7.96;100.00;100804.78;5075195;28;19965;-58
2023/01/10 08:25:37;;;;;;;;;;;;;;;7.96;100.00;100802.13;5090435;28;20336;-58
2023/01/10 08:28:03;;;;;;;;;;;;;;;8.04;100.00;100815.28;5092116;28;20304;-59
2023/01/10 08:30:28;;;;;;;;;;;;;;;8.16;100.00;100809.88;5094179;28;20544;-58
2023/01/10 08:32:53;;;;;;;;;;;;;;;8.24;100.00;100807.19;5087408;28;19936;-58
2023/01/10 08:35:19;;;;;;;;;;;;;;;8.25;99.58;100811.59;5084654;28;19943;-58
2023/01/10 08:37:44;;;;;;;;;;;;;;;8.20;99.24;100821.31;5092403;28;19944;-58
2023/01/10 08:40:10;;;;;;;;;;;;;;;8.23;99.23;100821.28;5086224;28;19942;-58
2023/01/10 08:42:35;;;;;;;;;;;;;;;8.17;98.72;100832.81;5072234;28;19936;-58
2023/01/10 08:45:01;;;;;;;;;;;;;;;8.10;98.90;100824.94;5072069;28;19937;-59
2023/01/10 08:47:26;;;;;;;;;;;;;;;8.12;98.74;100833.78;5078401;28;20001;-59
2023/01/10 08:49:52;;;;;;;;;;;;;;;8.09;99.04;100832.00;5091157;28;19954;-58
2023/01/10 08:52:17;;;;;;;;;;;;;;;8.12;99.18;100839.06;5087411;28;19934;-58
2023/01/10 08:54:42;;;;;;;;;;;;;;;8.02;99.27;100831.19;5091293;28;19955;-58
2023/01/10 08:57:08;;;;;;;;;;;;;;;8.04;99.55;100833.81;5091275;28;19973;-59
2023/01/10 08:59:33;;;;;;;;;;;;;;;7.96;99.00;100839.22;5092097;28;20582;-58
2023/01/10 09:01:58;;;;;;;;;;;;;;;7.99;99.48;100827.69;5085818;28;20028;-59
2023/01/10 09:04:25;;;;;;;;;;;;;;;8.00;99.59;100834.78;5079115;28;19980;-58
2023/01/10 09:06:50;;;;;;;;;;;;;;;8.00;99.57;100835.66;5071263;28;20423;-58
2023/01/10 09:09:15;;;;;;;;;;;;;;;7.98;99.54;100837.44;5091582;28;19927;-59
2023/01/10 09:11:41;;;;;;;;;;;;;;;8.05;99.17;100833.81;5092205;28;19981;-59
2023/01/10 09:14:06;;;;;;;;;;;;;;;7.99;98.96;100843.59;5092081;28;19933;-58
2023/01/10 09:16:31;;;;;;;;;;;;;;;7.93;98.78;100849.84;5092082;28;20395;-59
2023/01/10 09:18:57;;;;;;;;;;;;;;;8.02;98.28;100847.09;5073779;28;19931;-59
2023/01/10 09:21:22;;;;;;;;;;;;;;;8.07;97.99;100846.19;5094112;28;19969;-58
2023/01/10 09:23:47;;;;;;;;;;;;;;;8.11;98.73;100853.19;5091910;28;20006;-58
2023/01/10 09:26:12;;;;;;;;;;;;;;;8.12;98.24;100854.97;5086660;28;19927;-59
2023/01/10 09:28:38;;;;;;;;;;;;;;;8.17;97.88;100856.66;5079016;28;20327;-58
2023/01/10 09:31:04;;;;;;;;;;;;;;;8.22;97.68;100848.69;5076349;28;19935;-59
2023/01/10 09:33:29;;;;;;;;;;;;;;;8.21;97.18;100860.16;5069892;28;20555;-58
2023/01/10 09:35:56;;;;;;;;;;;;;;;8.10;96.60;100872.66;5071268;28;19935;-58
2023/01/10 09:38:21;;;;;;;;;;;;;;;8.07;97.26;100873.56;5078367;28;20772;-58
2023/01/10 09:40:56;;;;;;;;;;;;;;;8.04;97.43;100879.75;5078172;28;19947;-59
2023/01/10 09:43:28;;;;;;;;;;;;;;;8.09;97.73;100881.50;5074291;28;19985;-59
2023/01/10 09:46:08;;;;;;;;;;;;;;;8.16;98.04;100885.81;5075737;28;19995;-59
2023/01/10 09:48:34;;;;;;;;;;;;;;;8.10;97.28;100894.72;5088239;28;19955;-59
2023/01/10 09:51:15;;;;;;;;;;;;;;;8.13;97.49;100889.41;5090095;28;19936;-59
2023/01/10 09:53:42;;;;;;;;;;;;;;;8.18;97.74;100894.66;5088298;28;19981;-59
2023/01/10 09:56:08;;;;;;;;;;;;;;;8.26;97.47;100891.06;5073421;28;19967;-58
2023/01/10 09:58:35;;;;;;;;;;;;;;;8.34;97.75;100893.63;5069635;28;19931;-59
2023/01/10 10:01:05;;;;;;;;;;;;;;;8.44;97.54;100890.00;5071432;28;19940;-59
2023/01/10 10:03:35;;;;;;;;;;;;;;;8.52;96.58;100882.84;5090216;28;19946;-58
2023/01/10 10:06:01;;;;;;;;;;;;;;;8.58;95.79;100882.81;5090137;28;20439;-58
2023/01/10 10:08:26;;;;;;;;;;;;;;;8.63;95.27;100894.25;5071824;28;19957;-59
2023/01/10 10:11:02;;;;;;;;;;;;;;;8.68;94.83;100900.38;5080751;28;20038;-59
2023/01/10 10:13:40;;;;;;;;;;;;;;;8.62;93.91;100900.41;5081701;28;19932;-58
2023/01/10 10:16:13;;;;;;;;;;;;;;;8.74;94.27;100901.19;5081606;28;19946;-59
2023/01/10 10:18:41;;;;;;;;;;;;;;;8.78;93.33;100900.25;5086662;28;20365;-58
2023/01/10 10:21:11;;;;;;;;;;;;;;;8.82;93.67;100898.44;5083129;28;19941;-58
2023/01/10 10:23:43;;;;;;;;;;;;;;;8.87;93.28;100896.59;5098578;28;20437;-58
2023/01/10 10:26:16;;;;;;;;;;;;;;;8.93;92.62;100899.19;5090405;28;20034;-58
2023/01/10 10:29:05;;;;;;;;;;;;;;;8.92;92.59;100905.41;5092866;28;20001;-59
2023/01/10 10:31:42;;;;;;;;;;;;;;;8.79;92.10;100902.03;5072017;28;19993;-58
2023/01/10 10:34:16;;;;;;;;;;;;;;;8.79;92.40;100901.13;5081221;28;20389;-58
2023/01/10 10:36:47;;;;;;;;;;;;;;;8.87;92.60;100891.31;5093583;28;19952;-58
2023/01/10 10:39:15;;;;;;;;;;;;;;;8.86;92.22;100894.88;5090159;28;19948;-58
2023/01/10 10:41:42;;;;;;;;;;;;;;;8.79;91.95;100893.16;5085458;28;20400;-58
2023/01/10 10:44:28;;;;;;;;;;;;;;;8.78;92.39;100892.28;5082621;28;19981;-58
2023/01/10 10:46:56;;;;;;;;;;;;;;;8.71;92.60;100889.72;5062087;28;20007;-58
2023/01/10 10:49:40;;;;;;;;;;;;;;;8.77;93.17;100884.34;5092453;28;19931;-57
2023/01/10 10:52:16;;;;;;;;;;;;;;;8.68;92.90;100887.13;5090839;28;19936;-57
2023/01/10 10:54:41;;;;;;;;;;;;;;;8.83;93.45;100884.28;5091555;28;19961;-58
2023/01/10 10:57:08;;;;;;;;;;;;;;;9.53;93.15;100885.13;5087830;28;20404;-58
2023/01/10 10:59:33;;;;;;;;;;;;;;;9.88;90.03;100882.81;5092993;28;20392;-58
2023/01/10 11:01:59;;;;;;;;;;;;;;;10.20;88.33;100877.84;5088970;28;19936;-58
2023/01/10 11:04:25;;;;;;;;;;;;;;;10.85;85.18;100875.75;5089974;28;20029;-57
2023/01/10 11:06:51;;;;;;;;;;;;;;;11.28;80.18;100868.63;5074106;28;19963;-58
2023/01/10 11:09:22;;;;;;;;;;;;;;;10.96;77.64;100868.41;5072819;28;20417;-58
2023/01/10 11:11:49;;;;;;;;;;;;;;;11.34;78.49;100860.47;5076792;28;20367;-58
2023/01/10 11:14:14;;;;;;;;;;;;;;;12.57;73.56;100865.41;5080502;28;19938;-58
2023/01/10 11:16:42;;;;;;;;;;;;;;;13.40;70.57;100862.13;5072413;28;19937;-58
2023/01/10 11:19:07;;;;;;;;;;;;;;;14.19;63.25;100853.31;5089474;28;19981;-58
2023/01/10 11:21:33;;;;;;;;;;;;;;;14.56;58.82;100845.78;5094494;28;20018;-57
2023/01/10 11:23:58;;;;;;;;;;;;;;;14.04;61.29;100851.13;5093417;28;19983;-58
2023/01/10 11:26:34;;;;;;;;;;;;;;;14.76;61.58;100853.97;5077642;28;19938;-58
2023/01/10 11:29:05;;;;;;;;;;;;;;;14.90;57.62;100862.38;5076177;28;19944;-57
2023/01/10 11:31:31;;;;;;;;;;;;;;;14.46;58.65;100855.06;5075405;28;19942;-57
2023/01/10 11:33:57;;;;;;;;;;;;;;;13.94;60.48;100863.06;5074019;28;19959;-57
2023/01/10 11:36:22;;;;;;;;;;;;;;;13.15;62.41;100857.53;5080983;28;20018;-57
2023/01/10 11:38:58;;;;;;;;;;;;;;;12.58;65.47;100864.50;5075104;28;19944;-57
2023/01/10 11:41:30;;;;;;;;;;;;;;;12.15;67.73;100863.88;5091436;28;19945;-57
2023/01/10 11:44:13;;;;;;;;;;;;;;;12.04;69.47;100865.97;5094042;28;20743;-57
2023/01/10 11:46:41;;;;;;;;;;;;;;;12.27;70.43;100868.03;5083820;28;20383;-57
2023/01/10 11:49:13;;;;;;;;;;;;;;;13.02;67.99;100850.81;5093524;28;20311;-57
2023/01/10 11:51:43;;;;;;;;;;;;;;;13.79;64.34;100845.72;5083071;28;19948;-58
2023/01/10 11:54:11;;;;;;;;;;;;;;;14.56;61.99;100840.44;5073531;28;20408;-57
2023/01/10 11:56:38;;;;;;;;;;;;;;;14.99;57.94;100829.88;5075947;28;20345;-58
2023/01/10 11:59:11;;;;;;;;;;;;;;;15.07;54.12;100833.16;5073578;28;19933;-58
2023/01/10 12:01:36;;;;;;;;;;;;;;;15.59;56.22;100822.19;5073771;28;20443;-58
2023/01/10 12:04:02;;;;;;;;;;;;;;;15.31;51.89;100820.59;5086250;28;19941;-58
2023/01/10 12:06:27;;;;;;;;;;;;;;;15.59;51.06;100819.50;5093295;28;19938;-58
2023/01/10 12:08:55;;;;;;;;;;;;;;;15.82;50.75;100818.56;5088199;28;19954;-58
2023/01/10 12:11:26;;;;;;;;;;;;;;;15.89;49.44;100808.44;5072203;28;19959;-58
2023/01/10 12:13:52;;;;;;;;;;;;;;;15.73;49.35;100806.38;5082075;28;20023;-58
2023/01/10 12:16:28;;;;;;;;;;;;;;;15.30;49.98;100808.16;5084543;28;19974;-58
2023/01/10 12:18:58;;;;;;;;;;;;;;;14.77;51.03;100796.81;5091891;28;19938;-58
2023/01/10 12:21:29;;;;;;;;;;;;;;;14.38;52.70;100792.91;5081623;28;19934;-57
2023/01/10 12:23:57;;;;;;;;;;;;;;;13.89;53.92;100798.16;5072326;28;19934;-58
2023/01/10 12:26:23;;;;;;;;;;;;;;;13.30;55.49;100791.19;5072405;28;19938;-58
2023/01/10 12:28:56;;;;;;;;;;;;;;;12.94;58.58;100790.50;5074523;28;20424;-57
2023/01/10 12:31:22;;;;;;;;;;;;;;;12.32;59.45;100792.28;5075251;28;20444;-57
2023/01/10 12:33:53;;;;;;;;;;;;;;;11.90;61.38;100791.66;5073192;28;20313;-57
2023/01/10 12:36:24;;;;;;;;;;;;;;;11.76;62.03;100788.44;5075042;28;19940;-57
2023/01/10 12:39:02;;;;;;;;;;;;;;;11.65;64.33;100782.50;5072722;28;19941;-57
2023/01/10 12:44:34;;;;;;;;;;;;;;;11.67;66.92;100775.34;5091051;28;20055;-57
2023/01/10 12:47:19;;;;;;;;;;;;;;;11.62;66.56;100773.69;5088401;28;19960;-57
2023/01/10 12:49:47;;;;;;;;;;;;;;;11.54;65.99;100775.66;5081393;28;20048;-57
2023/01/10 12:52:19;;;;;;;;;;;;;;;11.50;66.54;100765.97;5093164;28;20384;-57